Time;durP1;ratioP1;P1;durP2;ratioP2;P2;SDS_P1;SDS_P2;PMS_P1;PMS_P2;Temp;Humidity;BMP_temperature;BMP_pressure;BME280_temperature;BME280_humidity;BME280_pressure;Samples;Min_cycle;Max_cycle;Signal;HPM_P1;HPM_P2
2021/06/26 00:00:17;;;;;;;11.65;4.00;;;640.10;1766.40;;;;;;5115654;28;20487;-72
2021/06/26 00:02:43;;;;;;;11.07;3.90;;;640.10;1766.40;;;;;;5115376;28;20024;-72
2021/06/26 00:05:10;;;;;;;11.55;3.95;;;640.00;1766.40;;;;;;5115565;28;20030;-72
2021/06/26 00:07:37;;;;;;;8.40;3.85;;;640.00;1766.40;;;;;;5115148;28;20101;-71
2021/06/26 00:10:05;;;;;;;11.35;3.47;;;615.30;1766.40;;;;;;5115607;28;20031;-72
2021/06/26 00:12:31;;;;;;;10.20;4.13;;;615.30;1766.40;;;;;;5114810;28;20018;-71
2021/06/26 00:14:57;;;;;;;8.80;3.70;;;615.30;1766.40;;;;;;5115495;28;20548;-72
2021/06/26 00:17:23;;;;;;;9.23;4.15;;;615.30;1766.40;;;;;;5114679;28;20015;-71
2021/06/26 00:19:49;;;;;;;8.63;3.85;;;615.30;1766.40;;;;;;5115315;28;20032;-72
2021/06/26 00:22:15;;;;;;;14.52;3.92;;;615.20;1792.00;;;;;;5114902;28;20027;-72
2021/06/26 00:24:41;;;;;;;9.52;4.18;;;615.20;1792.00;;;;;;5114860;28;20368;-72
2021/06/26 00:27:07;;;;;;;8.20;3.70;;;615.10;1792.00;;;;;;5115161;28;20472;-71
2021/06/26 00:29:33;;;;;;;14.60;4.20;;;615.10;1792.00;;;;;;5114462;28;20024;-71
2021/06/26 00:31:59;;;;;;;9.57;4.07;;;615.10;1792.00;;;;;;5115006;28;20535;-70
2021/06/26 00:34:25;;;;;;;14.90;4.80;;;615.10;1792.00;;;;;;5114628;28;20114;-72
2021/06/26 00:36:50;;;;;;;9.35;3.92;;;615.10;1792.00;;;;;;5095863;28;20024;-71
2021/06/26 00:39:16;;;;;;;13.23;3.97;;;615.10;1792.00;;;;;;5114265;28;20023;-70
2021/06/26 00:41:42;;;;;;;16.17;4.15;;;615.10;1792.00;;;;;;5114674;28;20019;-72
2021/06/26 00:44:09;;;;;;;13.27;3.72;;;615.10;1766.40;;;;;;5114283;28;20023;-75
2021/06/26 00:46:35;;;;;;;12.45;3.85;;;615.10;1766.40;;;;;;5114459;28;20027;-74
2021/06/26 00:49:03;;;;;;;11.23;4.10;;;615.00;1766.40;;;;;;5096421;28;20103;-72
2021/06/26 00:51:29;;;;;;;8.82;3.58;;;615.00;1766.40;;;;;;5114177;28;20023;-73
2021/06/26 00:53:56;;;;;;;11.38;3.67;;;615.10;1766.40;;;;;;5113274;28;20024;-72
2021/06/26 00:56:23;;;;;;;11.40;3.95;;;615.10;1766.40;;;;;;5113420;28;20099;-73
2021/06/26 00:58:49;;;;;;;12.68;4.22;;;615.10;1766.40;;;;;;5114126;28;20061;-69
2021/06/26 01:01:15;;;;;;;15.55;5.22;;;615.00;1792.00;;;;;;5113956;28;20432;-69
2021/06/26 01:03:43;;;;;;;14.50;4.38;;;615.00;1766.40;;;;;;5114016;28;20114;-70
2021/06/26 01:06:11;;;;;;;11.65;4.25;;;615.00;1792.00;;;;;;5096184;28;20106;-70
2021/06/26 01:08:37;;;;;;;13.13;4.53;;;615.00;1766.40;;;;;;5095847;28;20023;-72
2021/06/26 01:11:03;;;;;;;7.95;4.55;;;615.10;1766.40;;;;;;5114206;28;20028;-70
2021/06/26 01:13:29;;;;;;;10.13;3.88;;;615.00;1792.00;;;;;;5113518;28;20080;-70
2021/06/26 01:15:55;;;;;;;12.60;4.47;;;615.10;1792.00;;;;;;5114102;28;20032;-71
2021/06/26 01:18:21;;;;;;;10.82;4.28;;;614.90;1817.60;;;;;;5113610;28;20064;-69
2021/06/26 01:20:47;;;;;;;10.40;4.15;;;614.90;1817.60;;;;;;5114316;28;20069;-69
2021/06/26 01:23:14;;;;;;;15.73;5.60;;;614.80;1817.60;;;;;;5113531;28;20030;-72
2021/06/26 01:25:40;;;;;;;21.00;14.57;;;614.70;1817.60;;;;;;5113361;28;20536;-71
2021/06/26 01:28:06;;;;;;;27.42;9.73;;;614.70;1843.20;;;;;;5113937;28;20077;-72
2021/06/26 01:30:36;;;;;;;9.68;4.22;;;614.60;1817.60;;;;;;5112857;28;20487;-73
2021/06/26 01:33:03;;;;;;;13.60;4.65;;;614.60;1817.60;;;;;;5113504;28;20032;-73
2021/06/26 01:35:30;;;;;;;11.40;4.18;;;614.60;1843.20;;;;;;5113346;28;20543;-76
2021/06/26 01:37:58;;;;;;;9.68;4.32;;;614.50;1843.20;;;;;;5113258;28;20384;-75
2021/06/26 01:40:25;;;;;;;11.07;4.50;;;614.60;1817.60;;;;;;5113519;28;20076;-72
2021/06/26 01:42:53;;;;;;;9.98;4.53;;;614.60;1817.60;;;;;;5113956;28;20425;-69
2021/06/26 01:45:19;;;;;;;8.88;5.55;;;614.60;1817.60;;;;;;5113791;28;20032;-72
2021/06/26 01:47:54;;;;;;;16.75;5.78;;;614.50;1817.60;;;;;;5113716;28;20073;-68
2021/06/26 01:50:21;;;;;;;9.18;4.53;;;614.50;1817.60;;;;;;5113760;28;20141;-69
2021/06/26 01:52:48;;;;;;;10.82;3.92;;;614.60;1843.20;;;;;;5113695;28;20016;-72
2021/06/26 01:55:16;;;;;;;16.70;4.78;;;614.60;1817.60;;;;;;5095434;28;20036;-71
2021/06/26 01:57:43;;;;;;;14.38;4.70;;;614.60;1817.60;;;;;;5113805;28;20068;-75
2021/06/26 02:00:11;;;;;;;10.57;4.00;;;614.60;1817.60;;;;;;5113699;28;20023;-75
2021/06/26 02:02:37;;;;;;;13.45;5.05;;;614.70;1792.00;;;;;;5078667;28;20027;-69
2021/06/26 02:05:05;;;;;;;11.35;4.38;;;614.70;1817.60;;;;;;5113596;28;20023;-73
2021/06/26 02:07:31;;;;;;;10.15;3.85;;;614.60;1817.60;;;;;;5113551;28;20020;-69
2021/06/26 02:09:58;;;;;;;10.15;4.45;;;614.40;1817.60;;;;;;5095290;28;20122;-68
2021/06/26 02:12:24;;;;;;;14.60;4.32;;;614.60;1817.60;;;;;;5113901;28;20020;-69
2021/06/26 02:14:52;;;;;;;14.23;4.45;;;614.60;1817.60;;;;;;5113399;28;20050;-72
2021/06/26 02:17:22;;;;;;;9.10;4.15;;;614.60;1817.60;;;;;;5113450;28;20467;-69
2021/06/26 02:19:49;;;;;;;11.63;4.35;;;614.60;1792.00;;;;;;5113585;28;20073;-72
2021/06/26 02:22:15;;;;;;;11.18;4.32;;;614.60;1817.60;;;;;;5112875;28;20012;-71
2021/06/26 02:24:42;;;;;;;14.73;4.35;;;614.60;1792.00;;;;;;5113024;28;20047;-71
2021/06/26 02:27:08;;;;;;;11.68;3.67;;;614.60;1792.00;;;;;;5113041;28;20031;-71
2021/06/26 02:29:34;;;;;;;9.40;4.05;;;614.50;1817.60;;;;;;5112658;28;20024;-72
2021/06/26 02:31:59;;;;;;;9.25;4.05;;;614.60;1817.60;;;;;;5113011;28;20043;-69
2021/06/26 02:34:25;;;;;;;8.30;3.70;;;614.60;1817.60;;;;;;5113261;28;20047;-69
2021/06/26 02:36:52;;;;;;;9.40;4.00;;;614.60;1817.60;;;;;;5095266;28;20019;-69
2021/06/26 02:39:18;;;;;;;9.68;3.97;;;614.70;1792.00;;;;;;5113766;28;20020;-69
2021/06/26 02:41:44;;;;;;;14.02;4.30;;;614.70;1817.60;;;;;;5095217;28;20024;-68
2021/06/26 02:44:10;;;;;;;13.07;4.90;;;614.60;1817.60;;;;;;5113387;28;20020;-69
2021/06/26 02:46:36;;;;;;;16.48;4.35;;;614.50;1817.60;;;;;;5095186;28;20380;-69
2021/06/26 02:49:02;;;;;;;8.85;3.78;;;614.40;1843.20;;;;;;5115647;28;20065;-72
2021/06/26 02:51:28;;;;;;;16.88;4.25;;;614.40;1843.20;;;;;;5117260;28;20147;-68
2021/06/26 02:53:54;;;;;;;11.38;4.07;;;589.70;1843.20;;;;;;5117221;28;20044;-68
2021/06/26 02:56:20;;;;;;;8.82;4.43;;;589.70;1843.20;;;;;;5117202;28;20056;-70
2021/06/26 02:58:46;;;;;;;12.35;4.50;;;589.70;1868.80;;;;;;5117106;28;20059;-68
2021/06/26 03:01:12;;;;;;;9.63;4.15;;;589.60;1868.80;;;;;;5117630;28;20059;-68
2021/06/26 03:03:37;;;;;;;10.27;4.75;;;589.60;1868.80;;;;;;5098696;28;20020;-70
2021/06/26 03:06:04;;;;;;;11.35;4.35;;;589.60;1868.80;;;;;;5116928;28;20107;-72
2021/06/26 03:08:29;;;;;;;14.60;5.03;;;589.50;1868.80;;;;;;5117158;28;20023;-70
2021/06/26 03:10:55;;;;;;;14.57;4.55;;;589.50;1868.80;;;;;;5116883;28;20512;-70
2021/06/26 03:13:21;;;;;;;14.43;4.50;;;589.50;1894.40;;;;;;5117069;28;20080;-71
2021/06/26 03:15:47;;;;;;;13.38;4.28;;;589.50;1920.00;;;;;;5116758;28;20059;-70
2021/06/26 03:18:13;;;;;;;8.85;4.60;;;589.40;1894.40;;;;;;5116704;28;20467;-70
2021/06/26 03:20:39;;;;;;;13.15;4.63;;;589.40;1894.40;;;;;;5116789;28;20020;-70
2021/06/26 03:23:06;;;;;;;9.60;4.72;;;589.50;1894.40;;;;;;5116514;28;20035;-70
2021/06/26 03:25:32;;;;;;;10.82;3.97;;;589.50;1894.40;;;;;;5116536;28;20028;-70
2021/06/26 03:27:58;;;;;;;12.50;4.55;;;589.50;1894.40;;;;;;5116510;28;20169;-71
2021/06/26 03:30:25;;;;;;;10.57;4.55;;;589.50;1894.40;;;;;;5116307;28;20048;-71
2021/06/26 03:32:50;;;;;;;12.68;4.32;;;589.50;1894.40;;;;;;5116454;28;20099;-70
2021/06/26 03:35:16;;;;;;;12.90;4.78;;;589.50;1894.40;;;;;;5116269;28;20157;-70
2021/06/26 03:37:43;;;;;;;8.85;4.18;;;589.50;1894.40;;;;;;5097985;28;20031;-70
2021/06/26 03:40:10;;;;;;;16.05;4.70;;;589.50;1920.00;;;;;;5116284;28;20026;-72
2021/06/26 03:42:37;;;;;;;8.10;4.28;;;589.50;1894.40;;;;;;5116496;28;20051;-69
2021/06/26 03:45:04;;;;;;;9.80;4.05;;;589.50;1920.00;;;;;;5116211;28;20027;-68
2021/06/26 03:47:30;;;;;;;11.65;4.65;;;589.50;1920.00;;;;;;5116313;28;20011;-70
2021/06/26 03:49:56;;;;;;;12.27;4.68;;;589.50;1920.00;;;;;;5116072;28;20551;-68
2021/06/26 03:52:22;;;;;;;9.75;4.63;;;589.40;1945.60;;;;;;5116847;28;20024;-70
2021/06/26 03:54:48;;;;;;;8.95;4.47;;;589.40;1920.00;;;;;;5115913;28;20028;-69
2021/06/26 03:57:14;;;;;;;12.07;4.78;;;589.40;1920.00;;;;;;5116145;28;20024;-68
2021/06/26 03:59:40;;;;;;;12.18;5.13;;;614.40;1894.40;;;;;;5115340;28;20031;-68
2021/06/26 04:02:06;;;;;;;11.77;5.40;;;589.50;1920.00;;;;;;5097548;28;20087;-68
2021/06/26 04:04:36;;;;;;;11.05;5.93;;;589.50;1920.00;;;;;;5115786;28;20015;-69
2021/06/26 04:07:04;;;;;;;9.95;5.20;;;589.50;1920.00;;;;;;5115762;28;20016;-68
2021/06/26 04:09:30;;;;;;;9.95;4.93;;;589.50;1894.40;;;;;;5115998;28;20114;-69
2021/06/26 04:11:57;;;;;;;14.02;5.68;;;589.50;1920.00;;;;;;5115639;28;20464;-68
2021/06/26 04:14:23;;;;;;;10.52;5.03;;;589.50;1920.00;;;;;;5097224;28;20063;-69
2021/06/26 04:16:49;;;;;;;10.70;4.80;;;589.50;1920.00;;;;;;5115610;28;20020;-69
2021/06/26 04:19:15;;;;;;;11.40;5.13;;;589.60;1920.00;;;;;;5115557;28;20132;-69
2021/06/26 04:21:42;;;;;;;12.75;5.65;;;589.70;1894.40;;;;;;5115336;28;20096;-69
2021/06/26 04:24:09;;;;;;;9.52;5.10;;;589.60;1920.00;;;;;;5115404;28;20043;-69
2021/06/26 04:26:35;;;;;;;7.43;4.50;;;589.70;1920.00;;;;;;5115562;28;20432;-68
2021/06/26 04:29:01;;;;;;;10.18;4.55;;;589.70;1894.40;;;;;;5115394;28;20047;-68
2021/06/26 04:31:27;;;;;;;10.70;5.38;;;589.70;1894.40;;;;;;5114931;28;20040;-69
2021/06/26 04:33:53;;;;;;;9.77;4.65;;;614.40;1894.40;;;;;;5115245;28;20031;-69
2021/06/26 04:36:19;;;;;;;7.80;4.55;;;614.40;1894.40;;;;;;5096800;28;20031;-69
2021/06/26 04:38:45;;;;;;;8.15;4.70;;;614.40;1894.40;;;;;;5109792;28;20460;-68
2021/06/26 04:41:11;;;;;;;10.55;4.97;;;614.50;1894.40;;;;;;5114335;28;20028;-69
2021/06/26 04:43:38;;;;;;;9.98;4.95;;;614.50;1894.40;;;;;;5114970;28;20427;-68
2021/06/26 04:46:08;;;;;;;7.28;4.40;;;614.50;1920.00;;;;;;5114936;28;20015;-70
2021/06/26 04:48:35;;;;;;;10.07;4.55;;;614.40;1920.00;;;;;;5113728;28;20039;-70
2021/06/26 04:51:01;;;;;;;12.23;4.47;;;614.40;1945.60;;;;;;5114088;28;20080;-68
2021/06/26 04:53:26;;;;;;;7.63;4.35;;;614.50;1920.00;;;;;;5114732;28;20380;-69
2021/06/26 04:55:52;;;;;;;7.65;4.75;;;614.40;1920.00;;;;;;5114540;28;20039;-69
2021/06/26 04:58:22;;;;;;;6.03;4.15;;;614.40;1920.00;;;;;;5115045;28;20459;-69
2021/06/26 05:00:50;;;;;;;7.35;4.45;;;614.40;1920.00;;;;;;5096168;28;20023;-71
2021/06/26 05:03:20;;;;;;;10.07;4.45;;;614.40;1920.00;;;;;;5114198;28;20026;-70
2021/06/26 05:05:48;;;;;;;8.73;4.22;;;614.40;1920.00;;;;;;5114287;28;20027;-69
2021/06/26 05:08:14;;;;;;;7.38;4.25;;;614.50;1894.40;;;;;;5114739;28;20022;-70
2021/06/26 05:10:40;;;;;;;11.15;3.78;;;614.50;1920.00;;;;;;5114505;28;20383;-70
2021/06/26 05:13:06;;;;;;;15.88;4.68;;;614.60;1894.40;;;;;;5113645;28;20076;-70
2021/06/26 05:15:32;;;;;;;8.60;4.55;;;614.60;1894.40;;;;;;5114119;28;20032;-71
2021/06/26 05:17:58;;;;;;;10.00;4.55;;;614.60;1894.40;;;;;;5113952;28;20026;-70
2021/06/26 05:20:26;;;;;;;6.68;3.83;;;614.60;1920.00;;;;;;5113937;28;20116;-73
2021/06/26 05:22:52;;;;;;;7.57;4.70;;;614.60;1920.00;;;;;;5114287;28;20030;-72
2021/06/26 05:25:18;;;;;;;10.52;4.90;;;614.50;1920.00;;;;;;5114220;28;20365;-70
2021/06/26 05:27:44;;;;;;;7.95;4.95;;;614.50;1945.60;;;;;;5114584;28;20027;-72
2021/06/26 05:30:10;;;;;;;9.75;4.85;;;614.60;1920.00;;;;;;5113711;28;20051;-72
2021/06/26 05:32:36;;;;;;;6.55;4.88;;;614.60;1920.00;;;;;;5113787;28;20070;-73
2021/06/26 05:35:03;;;;;;;6.88;4.47;;;614.60;1945.60;;;;;;5113854;28;20465;-71
2021/06/26 05:37:29;;;;;;;7.38;5.25;;;614.60;1945.60;;;;;;5113817;28;20036;-69
2021/06/26 05:39:55;;;;;;;8.55;4.95;;;614.50;1945.60;;;;;;5114145;28;20031;-71
2021/06/26 05:42:21;;;;;;;6.93;4.40;;;614.60;1920.00;;;;;;5114191;28;20020;-71
2021/06/26 05:44:47;;;;;;;11.95;4.72;;;614.60;1920.00;;;;;;5113935;28;20042;-72
2021/06/26 05:47:13;;;;;;;11.30;4.78;;;614.60;1920.00;;;;;;5113809;28;20098;-71
2021/06/26 05:49:39;;;;;;;11.60;4.93;;;614.70;1894.40;;;;;;5113724;28;20031;-72
2021/06/26 05:52:05;;;;;;;6.20;4.65;;;614.80;1894.40;;;;;;5113820;28;20023;-72
2021/06/26 05:54:31;;;;;;;8.25;4.03;;;614.90;1894.40;;;;;;5095452;28;20038;-74
2021/06/26 05:56:58;;;;;;;6.60;4.03;;;614.90;1868.80;;;;;;5113643;28;20024;-71
2021/06/26 05:59:24;;;;;;;7.30;4.53;;;614.90;1868.80;;;;;;5113743;28;20059;-71
2021/06/26 06:01:50;;;;;;;8.65;4.53;;;614.90;1868.80;;;;;;5113591;28;20483;-71
2021/06/26 06:04:16;;;;;;;8.98;4.63;;;615.00;1868.80;;;;;;5113599;28;20058;-69
2021/06/26 06:06:42;;;;;;;7.28;4.80;;;615.00;1868.80;;;;;;5113850;28;20028;-71
2021/06/26 06:09:08;;;;;;;7.85;4.60;;;614.90;1894.40;;;;;;5113591;28;20451;-71
2021/06/26 06:11:34;;;;;;;9.65;4.38;;;615.00;1868.80;;;;;;5113892;28;20100;-71
2021/06/26 06:14:00;;;;;;;6.45;5.07;;;615.10;1843.20;;;;;;5113817;28;20027;-72
2021/06/26 06:16:26;;;;;;;12.52;4.63;;;615.20;1894.40;;;;;;5113487;28;20040;-70
2021/06/26 06:18:52;;;;;;;9.65;4.53;;;615.20;1843.20;;;;;;5113662;28;20062;-72
2021/06/26 06:21:18;;;;;;;5.95;3.97;;;615.30;1817.60;;;;;;5113562;28;20050;-72
2021/06/26 06:23:44;;;;;;;5.75;4.30;;;640.00;1817.60;;;;;;5115432;28;20051;-73
2021/06/26 06:26:12;;;;;;;6.22;4.13;;;640.10;1792.00;;;;;;5117539;28;20353;-73
2021/06/26 06:28:38;;;;;;;5.57;4.00;;;640.20;1792.00;;;;;;5117436;28;20015;-73
2021/06/26 06:31:04;;;;;;;6.10;4.15;;;640.30;1792.00;;;;;;5117401;28;20081;-72
2021/06/26 06:33:30;;;;;;;7.45;4.38;;;640.40;1766.40;;;;;;5117380;28;20030;-73
2021/06/26 06:35:56;;;;;;;9.25;3.80;;;640.50;1792.00;;;;;;5117257;28;20035;-71
2021/06/26 06:38:22;;;;;;;6.63;3.75;;;640.60;1766.40;;;;;;5117660;28;20099;-72
2021/06/26 06:40:48;;;;;;;12.88;4.10;;;640.70;1740.80;;;;;;5117298;28;20023;-72
2021/06/26 06:43:14;;;;;;;7.93;3.50;;;640.70;1740.80;;;;;;5117316;28;20525;-72
2021/06/26 06:45:40;;;;;;;7.22;3.10;;;640.80;1740.80;;;;;;5117107;28;20047;-72
2021/06/26 06:48:06;;;;;;;10.60;3.45;;;665.60;1740.80;;;;;;5117042;28;20019;-70
2021/06/26 06:50:32;;;;;;;6.93;3.53;;;665.70;1740.80;;;;;;5117046;28;20054;-70
2021/06/26 06:53:01;;;;;;;7.95;3.25;;;665.80;1715.20;;;;;;5116944;28;20055;-72
2021/06/26 06:55:28;;;;;;;7.03;3.10;;;666.00;1689.60;;;;;;5116812;28;20475;-72
2021/06/26 06:57:54;;;;;;;8.43;3.83;;;666.00;1689.60;;;;;;5117106;28;20375;-71
2021/06/26 07:00:20;;;;;;;8.75;3.40;;;666.10;1689.60;;;;;;5116751;28;20479;-72
2021/06/26 07:02:46;;;;;;;5.53;2.90;;;666.20;1689.60;;;;;;5116786;28;20099;-70
2021/06/26 07:05:12;;;;;;;6.28;3.15;;;666.40;1664.00;;;;;;5116392;28;20115;-71
2021/06/26 07:07:38;;;;;;;7.10;3.25;;;666.50;1638.40;;;;;;5113671;28;20544;-72
2021/06/26 07:10:06;;;;;;;7.63;2.72;;;691.20;1638.40;;;;;;5116695;28;20161;-72
2021/06/26 07:12:32;;;;;;;5.78;2.92;;;691.30;1638.40;;;;;;5098490;28;20476;-70
2021/06/26 07:14:58;;;;;;;7.35;2.83;;;691.30;1638.40;;;;;;5116084;28;20032;-71
2021/06/26 07:17:24;;;;;;;7.38;2.88;;;691.20;1612.80;;;;;;5117182;28;20095;-69
2021/06/26 07:19:50;;;;;;;6.03;3.30;;;691.30;1638.40;;;;;;5115239;28;20019;-72
2021/06/26 07:22:16;;;;;;;8.52;2.97;;;691.40;1638.40;;;;;;5115987;28;20540;-68
2021/06/26 07:24:42;;;;;;;7.05;3.35;;;691.40;1612.80;;;;;;5116055;28;20035;-68
2021/06/26 07:27:09;;;;;;;4.82;2.85;;;691.50;1561.60;;;;;;5116721;28;20020;-71
2021/06/26 07:29:35;;;;;;;8.90;3.20;;;691.50;1587.20;;;;;;5116247;28;20719;-69
2021/06/26 07:32:01;;;;;;;8.68;3.13;;;691.60;1587.20;;;;;;5116731;28;20055;-68
2021/06/26 07:34:27;;;;;;;5.40;3.42;;;691.70;1561.60;;;;;;5115236;28;20028;-70
2021/06/26 07:36:53;;;;;;;8.70;3.53;;;691.70;1587.20;;;;;;5116405;28;20483;-69
2021/06/26 07:39:19;;;;;;;5.78;3.10;;;691.70;1612.80;;;;;;5116184;28;20020;-68
2021/06/26 07:41:45;;;;;;;7.95;3.58;;;691.70;1587.20;;;;;;5116547;28;20031;-68
2021/06/26 07:44:11;;;;;;;7.70;3.20;;;691.70;1612.80;;;;;;5116277;28;20445;-68
2021/06/26 07:46:37;;;;;;;4.85;3.40;;;691.60;1587.20;;;;;;5116138;28;20394;-70
2021/06/26 07:49:03;;;;;;;7.25;3.30;;;691.60;1587.20;;;;;;5116111;28;20020;-68
2021/06/26 07:51:29;;;;;;;4.35;3.00;;;691.60;1612.80;;;;;;5116040;28;20020;-70
2021/06/26 07:53:55;;;;;;;7.55;3.72;;;691.50;1587.20;;;;;;5116013;28;20023;-69
2021/06/26 07:56:20;;;;;;;8.18;4.10;;;691.60;1587.20;;;;;;5116250;28;20536;-70
2021/06/26 07:58:46;;;;;;;7.80;4.20;;;691.60;1587.20;;;;;;5115989;28;20026;-69
2021/06/26 08:01:15;;;;;;;8.65;4.53;;;691.70;1587.20;;;;;;5115983;28;20051;-70
2021/06/26 08:03:40;;;;;;;10.75;4.80;;;691.80;1612.80;;;;;;5115005;28;20035;-71
2021/06/26 08:06:06;;;;;;;9.85;4.63;;;691.90;1612.80;;;;;;5114889;28;20031;-73
2021/06/26 08:08:32;;;;;;;10.45;5.28;;;691.80;1638.40;;;;;;5115102;28;20015;-70
2021/06/26 08:10:58;;;;;;;11.00;4.40;;;691.90;1638.40;;;;;;5115004;28;20386;-72
2021/06/26 08:13:24;;;;;;;8.10;4.20;;;691.90;1638.40;;;;;;5115059;28;20024;-71
2021/06/26 08:15:50;;;;;;;7.00;4.65;;;691.90;1612.80;;;;;;5114836;28;20035;-69
2021/06/26 08:18:16;;;;;;;9.48;4.18;;;692.00;1612.80;;;;;;5115141;28;20103;-71
2021/06/26 08:20:43;;;;;;;7.40;4.00;;;692.00;1587.20;;;;;;5115512;28;20081;-75
2021/06/26 08:23:09;;;;;;;14.95;4.18;;;692.10;1587.20;;;;;;5115358;28;20027;-70
2021/06/26 08:25:35;;;;;;;5.47;3.70;;;716.80;1587.20;;;;;;5114976;28;20016;-70
2021/06/26 08:28:02;;;;;;;7.38;4.35;;;716.90;1587.20;;;;;;5112146;28;20072;-70
2021/06/26 08:30:28;;;;;;;8.15;4.75;;;716.90;1561.60;;;;;;5114813;28;20075;-70
2021/06/26 08:32:54;;;;;;;7.80;5.10;;;716.90;1612.80;;;;;;5114779;28;20020;-70
2021/06/26 08:35:20;;;;;;;14.23;5.07;;;716.90;1612.80;;;;;;5114634;28;20432;-70
2021/06/26 08:37:47;;;;;;;11.18;4.97;;;716.90;1587.20;;;;;;5114719;28;20019;-70
2021/06/26 08:40:15;;;;;;;10.88;4.93;;;716.90;1587.20;;;;;;5114786;28;20020;-71
2021/06/26 08:42:41;;;;;;;6.82;4.45;;;716.90;1587.20;;;;;;5114567;28;20099;-70
2021/06/26 08:45:15;;;;;;;9.38;5.10;;;716.90;1587.20;;;;;;5114643;28;20062;-70
2021/06/26 08:47:42;;;;;;;6.05;4.13;;;716.90;1587.20;;;;;;5114412;28;20012;-70
2021/06/26 08:50:08;;;;;;;8.30;4.60;;;716.90;1536.00;;;;;;5114397;28;20475;-70
2021/06/26 08:52:34;;;;;;;9.95;4.13;;;716.90;1561.60;;;;;;5114388;28;20098;-70
2021/06/26 08:55:00;;;;;;;8.75;5.15;;;716.90;1561.60;;;;;;5113966;28;20110;-70
2021/06/26 08:57:31;;;;;;;10.00;5.50;;;717.00;1561.60;;;;;;5114211;28;20023;-70
2021/06/26 09:00:00;;;;;;;7.70;4.80;;;717.00;1561.60;;;;;;5114211;28;20458;-70
2021/06/26 09:02:29;;;;;;;8.05;4.72;;;717.00;1561.60;;;;;;5114255;28;20016;-71
2021/06/26 09:04:56;;;;;;;7.53;5.10;;;717.00;1536.00;;;;;;5114089;28;20107;-71
2021/06/26 09:07:28;;;;;;;9.20;5.90;;;717.00;1561.60;;;;;;5114030;28;20016;-70
2021/06/26 09:09:57;;;;;;;7.03;5.90;;;717.00;1561.60;;;;;;5114145;28;20496;-71
2021/06/26 09:12:26;;;;;;;10.40;6.00;;;717.00;1561.60;;;;;;5111550;28;20031;-71
2021/06/26 09:14:52;;;;;;;7.47;5.60;;;717.10;1587.20;;;;;;5114185;28;20028;-70
2021/06/26 09:17:28;;;;;;;10.27;5.47;;;717.00;1561.60;;;;;;5113973;28;20525;-71
2021/06/26 09:19:56;;;;;;;7.20;5.32;;;717.00;1561.60;;;;;;5114100;28;20384;-71
2021/06/26 09:22:22;;;;;;;8.90;5.53;;;717.20;1536.00;;;;;;5095641;28;20015;-71
2021/06/26 09:24:51;;;;;;;7.97;5.43;;;717.10;1561.60;;;;;;5113818;28;20475;-70
2021/06/26 09:27:19;;;;;;;6.78;5.13;;;717.00;1561.60;;;;;;5113843;28;20074;-69
2021/06/26 09:29:52;;;;;;;6.55;4.75;;;717.10;1561.60;;;;;;5111610;28;20020;-69
2021/06/26 09:32:26;;;;;;;8.32;5.32;;;717.20;1510.40;;;;;;5114596;28;20108;-69
2021/06/26 09:34:53;;;;;;;7.57;5.30;;;717.30;1510.40;;;;;;5114246;28;20093;-69
2021/06/26 09:37:29;;;;;;;7.53;5.53;;;717.20;1510.40;;;;;;5114204;28;20059;-68
2021/06/26 09:39:57;;;;;;;5.63;4.50;;;717.20;1536.00;;;;;;5114404;28;20023;-70
2021/06/26 09:42:26;;;;;;;7.78;5.10;;;717.20;1459.20;;;;;;5114149;28;20024;-70
2021/06/26 09:45:00;;;;;;;7.07;4.95;;;717.30;1484.80;;;;;;5114367;28;20016;-70
2021/06/26 09:47:36;;;;;;;12.05;5.20;;;717.30;1484.80;;;;;;5114424;28;20155;-76
2021/06/26 09:50:19;;;;;;;6.75;4.45;;;717.20;1484.80;;;;;;5114087;28;20034;-77
2021/06/26 09:52:54;;;;;;;6.65;5.28;;;717.30;1459.20;;;;;;5113578;28;20028;-75
2021/06/26 09:55:37;;;;;;;7.03;4.22;;;717.30;1484.80;;;;;;5111404;28;20451;-72
2021/06/26 09:58:16;;;;;;;6.32;4.43;;;717.40;1484.80;;;;;;5111397;28;20024;-72
2021/06/26 10:00:43;;;;;;;6.65;4.38;;;717.50;1484.80;;;;;;5111677;28;20016;-71
2021/06/26 10:03:16;;;;;;;7.97;4.75;;;717.50;1484.80;;;;;;5113118;28;20027;-73
2021/06/26 10:05:44;;;;;;;7.50;5.35;;;717.50;1459.20;;;;;;5113911;28;20024;-75
2021/06/26 10:08:10;;;;;;;6.85;4.85;;;717.60;1433.60;;;;;;5113704;28;20364;-70
2021/06/26 10:10:36;;;;;;;6.72;4.03;;;717.60;1459.20;;;;;;5095095;28;20027;-70
2021/06/26 10:13:03;;;;;;;7.53;4.38;;;717.60;1459.20;;;;;;5112459;28;20028;-70
2021/06/26 10:15:31;;;;;;;5.70;4.28;;;717.70;1433.60;;;;;;5113616;28;20042;-69
2021/06/26 10:17:58;;;;;;;7.43;4.32;;;742.40;1433.60;;;;;;5113986;28;20095;-69
2021/06/26 10:20:26;;;;;;;5.93;4.05;;;742.40;1433.60;;;;;;5113829;28;20102;-70
2021/06/26 10:23:02;;;;;;;7.55;4.13;;;742.40;1459.20;;;;;;5113554;28;20494;-70
2021/06/26 10:25:34;;;;;;;6.30;3.88;;;742.40;1382.40;;;;;;5113557;28;20081;-71
2021/06/26 10:28:16;;;;;;;6.22;4.43;;;742.40;1408.00;;;;;;5113669;28;20048;-69
2021/06/26 10:30:56;;;;;;;9.02;4.00;;;742.40;1408.00;;;;;;5113489;28;20043;-70
2021/06/26 10:33:26;;;;;;;6.93;3.40;;;717.70;1408.00;;;;;;5113686;28;20407;-70
2021/06/26 10:35:54;;;;;;;5.70;3.60;;;742.40;1433.60;;;;;;5113546;28;20038;-73
2021/06/26 10:38:21;;;;;;;31.52;4.68;;;742.40;1408.00;;;;;;5113374;28;20024;-70
2021/06/26 10:40:48;;;;;;;9.90;3.90;;;742.50;1382.40;;;;;;5113347;28;20030;-70
2021/06/26 10:43:32;;;;;;;6.78;3.63;;;742.40;1382.40;;;;;;5113408;28;20024;-70
2021/06/26 10:46:08;;;;;;;6.68;3.65;;;742.40;1408.00;;;;;;5095400;28;20384;-72
2021/06/26 10:48:36;;;;;;;6.40;3.25;;;717.70;1382.40;;;;;;5113357;28;20012;-70
2021/06/26 10:51:02;;;;;;;5.18;3.28;;;742.50;1382.40;;;;;;5095106;28;20093;-69
2021/06/26 10:53:37;;;;;;;4.60;3.33;;;742.60;1382.40;;;;;;5095180;28;20032;-70
2021/06/26 10:56:16;;;;;;;7.22;3.83;;;742.60;1382.40;;;;;;5113568;28;20027;-70
2021/06/26 10:58:46;;;;;;;8.68;3.25;;;742.60;1356.80;;;;;;5113119;28;20024;-70
2021/06/26 11:01:14;;;;;;;7.78;3.05;;;742.60;1331.20;;;;;;5113262;28;20481;-69
2021/06/26 11:03:40;;;;;;;3.70;3.10;;;742.60;1331.20;;;;;;5113225;28;20468;-69
2021/06/26 11:06:27;;;;;;;5.78;3.40;;;742.60;1331.20;;;;;;5113212;28;20039;-70
2021/06/26 11:08:58;;;;;;;6.22;3.30;;;742.70;1356.80;;;;;;5113102;28;20096;-69
2021/06/26 11:11:32;;;;;;;4.07;2.90;;;742.80;1305.60;;;;;;5115787;28;20023;-70
2021/06/26 11:14:10;;;;;;;10.65;3.00;;;742.80;1331.20;;;;;;5116501;28;20012;-70
2021/06/26 11:16:37;;;;;;;4.88;2.63;;;742.80;1331.20;;;;;;5116807;28;20115;-71
2021/06/26 11:19:03;;;;;;;6.32;2.85;;;742.90;1305.60;;;;;;5117281;28;20024;-72
2021/06/26 11:21:41;;;;;;;3.38;2.72;;;742.90;1356.80;;;;;;5116964;28;20475;-72
2021/06/26 11:24:07;;;;;;;7.63;3.05;;;743.00;1356.80;;;;;;5116628;28;20015;-69
2021/06/26 11:26:53;;;;;;;4.68;2.40;;;743.00;1305.60;;;;;;5116243;28;20019;-72
2021/06/26 11:29:40;;;;;;;13.02;3.53;;;743.00;1254.40;;;;;;5096220;28;20032;-72
2021/06/26 11:32:27;;;;;;;4.85;2.60;;;743.00;1254.40;;;;;;5096394;28;20490;-73
2021/06/26 11:34:57;;;;;;;7.32;3.70;;;743.00;1280.00;;;;;;5113440;28;20054;-71
2021/06/26 11:37:41;;;;;;;9.93;3.38;;;743.00;1254.40;;;;;;5116279;28;20023;-70
2021/06/26 11:40:25;;;;;;;4.13;2.42;;;743.10;1280.00;;;;;;5116559;28;20022;-75
2021/06/26 11:43:01;;;;;;;5.18;2.13;;;743.10;1254.40;;;;;;5097755;28;20031;-72
2021/06/26 11:45:39;;;;;;;6.25;2.78;;;743.10;1254.40;;;;;;5114995;28;20018;-71
2021/06/26 11:48:16;;;;;;;7.15;2.45;;;743.10;1280.00;;;;;;5114872;28;20023;-72
2021/06/26 11:50:49;;;;;;;3.75;2.50;;;743.20;1228.80;;;;;;5114720;28;20047;-70
2021/06/26 11:53:16;;;;;;;5.32;2.70;;;743.20;1203.20;;;;;;5114734;28;20494;-70
2021/06/26 11:56:02;;;;;;;4.63;2.70;;;743.20;1254.40;;;;;;5096565;28;20036;-70
2021/06/26 11:58:45;;;;;;;6.43;2.92;;;743.20;1280.00;;;;;;5114946;28;20098;-71
2021/06/26 12:01:11;;;;;;;;;;;743.30;1254.40;;;;;;5116082;28;20476;-72
2021/06/26 12:03:38;;;;;;;5.18;2.28;;;743.30;1254.40;;;;;;5115865;28;19957;-71
2021/06/26 12:06:07;;;;;;;3.72;2.58;;;743.20;1228.80;;;;;;5115749;28;20102;-71
2021/06/26 12:08:47;;;;;;;7.75;2.83;;;768.00;1203.20;;;;;;5115821;28;20023;-72
2021/06/26 12:11:18;;;;;;;4.82;2.60;;;768.00;1228.80;;;;;;5116046;28;20024;-70
2021/06/26 12:13:46;;;;;;;7.28;2.80;;;768.00;1203.20;;;;;;5114947;28;20044;-71
2021/06/26 12:16:14;;;;;;;4.57;2.50;;;768.00;1228.80;;;;;;5114570;28;20052;-72